createdAt,value
2022-09-30T00:00:24.910Z,28.49
2022-09-30T00:02:53.902Z,28.43
2022-09-30T00:05:23.179Z,28.41
2022-09-30T00:07:52.118Z,28.42
2022-09-30T00:10:20.944Z,28.41
2022-09-30T00:12:50.014Z,28.45
2022-09-30T00:15:19.205Z,28.45
2022-09-30T00:17:48.237Z,28.49
2022-09-30T00:20:17.355Z,28.48
2022-09-30T00:22:46.487Z,28.42
2022-09-30T00:25:17.173Z,28.43
2022-09-30T00:27:46.674Z,28.35
2022-09-30T00:30:15.707Z,28.34
2022-09-30T00:32:44.700Z,28.22
2022-09-30T00:35:13.641Z,28.22
2022-09-30T00:37:42.660Z,28.15
2022-09-30T00:40:13.226Z,28.27
2022-09-30T00:42:43.060Z,28.35
2022-09-30T00:45:14.803Z,28.41
2022-09-30T00:47:56.066Z,28.60
2022-09-30T00:50:39.572Z,28.54
2022-09-30T00:53:20.376Z,28.54
2022-09-30T00:56:01.928Z,28.46
2022-09-30T00:58:48.743Z,28.41
2022-09-30T01:01:20.869Z,28.31
2022-09-30T01:03:56.068Z,28.33
2022-09-30T01:06:28.031Z,28.24
2022-09-30T01:08:59.449Z,28.15
2022-09-30T01:11:30.242Z,28.24
2022-09-30T01:14:04.706Z,28.30
2022-09-30T01:17:10.131Z,28.31
2022-09-30T01:20:04.455Z,28.39
2022-09-30T01:22:42.441Z,28.43
2022-09-30T01:25:46.970Z,28.50
2022-09-30T01:28:37.727Z,28.50
2022-09-30T01:31:27.759Z,28.53
2022-09-30T01:34:27.893Z,28.54
2022-09-30T01:37:19.460Z,28.39
2022-09-30T01:40:05.402Z,28.60
2022-09-30T01:42:52.229Z,28.61
2022-09-30T01:45:51.125Z,28.58
2022-09-30T01:48:24.248Z,28.47
2022-09-30T01:51:11.549Z,28.71
2022-09-30T01:53:52.720Z,28.78
2022-09-30T01:56:43.657Z,28.80
2022-09-30T01:59:37.681Z,28.93
2022-09-30T02:02:22.932Z,28.95
2022-09-30T02:05:20.454Z,28.99
2022-09-30T02:08:24.853Z,29.04
2022-09-30T02:11:03.023Z,29.10
2022-09-30T02:13:59.701Z,29.09
2022-09-30T02:16:35.799Z,29.18
2022-09-30T02:19:21.691Z,29.24
2022-09-30T02:22:05.072Z,29.29
2022-09-30T02:24:38.146Z,29.27
2022-09-30T02:27:13.026Z,29.37
2022-09-30T02:29:47.836Z,29.51
2022-09-30T02:32:26.200Z,29.56
2022-09-30T02:35:07.735Z,29.52
2022-09-30T02:37:40.762Z,29.65
2022-09-30T02:40:14.844Z,29.59
2022-09-30T02:42:47.018Z,29.67
2022-09-30T02:45:21.760Z,29.78
2022-09-30T02:48:23.596Z,29.87
2022-09-30T02:51:25.622Z,29.98
2022-09-30T02:54:21.287Z,30.03
2022-09-30T02:57:05.596Z,30.10
2022-09-30T02:59:35.351Z,30.01
2022-09-30T03:02:04.576Z,29.96
2022-09-30T03:04:36.924Z,30.11
2022-09-30T03:07:05.977Z,30.25
2022-09-30T03:09:37.344Z,30.26
2022-09-30T03:12:18.051Z,30.41
2022-09-30T03:15:20.877Z,30.46
2022-09-30T03:18:08.158Z,30.53
2022-09-30T03:20:55.843Z,30.69
2022-09-30T03:23:52.937Z,30.76
2022-09-30T03:26:48.719Z,30.82
2022-09-30T03:29:38.228Z,30.91
2022-09-30T03:32:32.249Z,30.94
2022-09-30T03:35:13.574Z,31.06
2022-09-30T03:38:04.962Z,31.10
2022-09-30T03:40:43.107Z,31.12
2022-09-30T03:43:44.991Z,31.17
2022-09-30T03:46:31.150Z,31.26
2022-09-30T03:49:06.354Z,31.25
2022-09-30T03:51:41.444Z,31.28
2022-09-30T03:54:13.673Z,31.37
2022-09-30T03:56:45.795Z,31.26
2022-09-30T03:59:26.782Z,31.53
2022-09-30T04:01:58.442Z,31.54
2022-09-30T04:04:28.757Z,31.54
2022-09-30T04:06:57.986Z,31.63
2022-09-30T04:09:28.564Z,31.72
2022-09-30T04:11:58.066Z,31.81
2022-09-30T04:14:27.450Z,31.72
2022-09-30T04:16:56.739Z,31.73
2022-09-30T04:19:25.910Z,31.85
2022-09-30T04:21:56.389Z,31.97
2022-09-30T04:24:26.498Z,32.09
2022-09-30T04:26:55.636Z,31.99
2022-09-30T04:29:24.802Z,32.17
2022-09-30T04:31:53.853Z,32.18
2022-09-30T04:34:23.145Z,32.30
2022-09-30T04:36:52.321Z,32.36
2022-09-30T04:39:21.729Z,32.45
2022-09-30T04:41:55.128Z,32.44
2022-09-30T04:44:24.479Z,32.55
2022-09-30T04:46:53.983Z,32.58
2022-09-30T04:49:26.736Z,32.65
2022-09-30T04:51:56.862Z,32.75
2022-09-30T04:54:26.475Z,32.78
2022-09-30T04:56:58.033Z,32.85
2022-09-30T04:59:27.690Z,32.83
2022-09-30T05:01:56.580Z,32.90
2022-09-30T05:04:26.123Z,33.03
2022-09-30T05:06:57.243Z,33.06
2022-09-30T05:09:32.391Z,33.04
2022-09-30T05:12:04.312Z,33.11
2022-09-30T05:14:34.707Z,33.27
2022-09-30T05:17:04.714Z,33.31
2022-09-30T05:19:34.336Z,33.38
2022-09-30T05:22:04.433Z,33.40
2022-09-30T05:24:33.570Z,33.44
2022-09-30T05:27:22.369Z,33.56
2022-09-30T05:29:52.475Z,33.52
2022-09-30T05:32:22.843Z,33.56
2022-09-30T05:34:53.027Z,33.65
2022-09-30T05:37:22.482Z,33.59
2022-09-30T05:39:52.501Z,33.69
2022-09-30T05:42:22.487Z,33.72
2022-09-30T05:44:53.280Z,33.72
2022-09-30T05:47:22.881Z,33.62
2022-09-30T05:49:55.983Z,33.90
2022-09-30T05:52:26.150Z,33.80
2022-09-30T05:55:02.331Z,33.88
2022-09-30T05:57:31.585Z,33.96
2022-09-30T06:00:00.482Z,34.13
2022-09-30T06:02:32.494Z,34.14
2022-09-30T06:05:01.907Z,34.16
2022-09-30T06:07:30.818Z,34.28
2022-09-30T06:09:59.910Z,34.30
2022-09-30T06:12:29.784Z,34.34
2022-09-30T06:14:59.128Z,34.25
2022-09-30T06:17:28.101Z,34.30
2022-09-30T06:19:57.883Z,34.50
2022-09-30T06:22:28.148Z,34.54
2022-09-30T06:24:57.790Z,34.66
2022-09-30T06:27:29.826Z,34.75
2022-09-30T06:30:07.423Z,34.85
2022-09-30T06:32:36.446Z,34.84
2022-09-30T06:35:05.518Z,34.92
2022-09-30T06:37:38.019Z,34.94
2022-09-30T06:40:08.638Z,35.03
2022-09-30T06:42:37.644Z,34.95
2022-09-30T06:45:07.068Z,34.90
2022-09-30T06:47:36.306Z,35.06
2022-09-30T06:50:05.889Z,35.03
2022-09-30T06:52:35.882Z,35.11
2022-09-30T06:55:05.199Z,35.19
2022-09-30T06:57:34.478Z,35.24
2022-09-30T07:00:04.327Z,35.26
2022-09-30T07:02:35.662Z,35.25
2022-09-30T07:05:05.126Z,35.31
2022-09-30T07:07:35.989Z,35.25
2022-09-30T07:10:06.075Z,35.38
2022-09-30T07:12:35.679Z,35.45
2022-09-30T07:15:05.304Z,35.41
2022-09-30T07:17:34.482Z,35.38
2022-09-30T07:20:03.386Z,35.39
2022-09-30T07:22:33.192Z,35.48
2022-09-30T07:25:05.145Z,35.60
2022-09-30T07:27:35.147Z,35.60
2022-09-30T07:30:16.118Z,35.55
2022-09-30T07:32:48.004Z,35.49
2022-09-30T07:35:16.948Z,35.47
2022-09-30T07:37:47.025Z,35.51
2022-09-30T07:40:19.375Z,35.51
2022-09-30T07:42:48.977Z,35.36
2022-09-30T07:45:20.190Z,35.51
2022-09-30T07:47:53.532Z,35.65
2022-09-30T07:50:23.793Z,35.63
2022-09-30T07:52:55.056Z,35.81
2022-09-30T07:55:24.351Z,35.73
2022-09-30T07:57:53.537Z,35.74
2022-09-30T08:00:41.596Z,35.73
2022-09-30T08:03:11.721Z,35.77
2022-09-30T08:05:42.540Z,35.78
2022-09-30T08:08:12.168Z,35.77
2022-09-30T08:10:41.204Z,35.77
2022-09-30T08:13:14.803Z,35.75
2022-09-30T08:15:45.178Z,35.89
2022-09-30T08:18:14.346Z,35.81
2022-09-30T08:20:43.367Z,35.71
2022-09-30T08:23:12.524Z,35.70
2022-09-30T08:25:41.699Z,35.55
2022-09-30T08:28:10.991Z,35.54
2022-09-30T08:30:41.080Z,35.51
2022-09-30T08:33:10.422Z,35.43
2022-09-30T08:35:39.395Z,35.31
2022-09-30T08:38:08.413Z,35.31
2022-09-30T08:40:52.078Z,35.56
2022-09-30T08:43:28.889Z,35.53
2022-09-30T08:46:17.420Z,35.62
2022-09-30T08:48:53.942Z,35.48
2022-09-30T08:51:53.448Z,35.47
2022-09-30T08:54:26.663Z,35.51
2022-09-30T08:56:56.753Z,35.50
2022-09-30T08:59:34.979Z,35.64
2022-09-30T09:02:17.590Z,35.46
2022-09-30T09:04:49.342Z,35.48
2022-09-30T09:07:36.254Z,35.46
2022-09-30T09:10:14.357Z,35.49
2022-09-30T09:13:18.572Z,35.38
2022-09-30T09:15:56.364Z,35.24
2022-09-30T09:18:35.148Z,35.38
2022-09-30T09:21:21.557Z,35.21
2022-09-30T09:23:53.509Z,35.28
2022-09-30T09:26:24.322Z,35.24
2022-09-30T09:29:22.181Z,35.33
2022-09-30T09:31:51.425Z,35.16
2022-09-30T09:34:20.673Z,35.16
2022-09-30T09:37:10.220Z,35.14
2022-09-30T09:39:51.709Z,35.25
2022-09-30T09:42:43.353Z,35.27
2022-09-30T09:45:30.274Z,35.25
2022-09-30T09:48:01.228Z,35.17
2022-09-30T09:50:30.505Z,35.08
2022-09-30T09:53:25.459Z,35.15
2022-09-30T09:56:01.176Z,35.10
2022-09-30T09:58:30.861Z,35.04
2022-09-30T10:01:29.980Z,35.16
2022-09-30T10:04:12.594Z,35.10
2022-09-30T10:06:56.893Z,35.13
2022-09-30T10:09:33.985Z,35.11
2022-09-30T10:12:08.961Z,35.10
2022-09-30T10:15:02.062Z,35.12
2022-09-30T10:17:36.787Z,34.99
2022-09-30T10:20:22.197Z,35.05
2022-09-30T10:22:51.990Z,34.92
2022-09-30T10:25:26.129Z,35.02
2022-09-30T10:28:01.345Z,35.00
2022-09-30T10:30:42.161Z,34.81
2022-09-30T10:33:31.586Z,34.98
2022-09-30T10:36:12.220Z,34.92
2022-09-30T10:39:01.248Z,34.95
2022-09-30T10:41:35.454Z,34.81
2022-09-30T10:44:09.458Z,34.86
2022-09-30T10:46:41.639Z,34.75
2022-09-30T10:49:12.991Z,34.90
2022-09-30T10:51:47.309Z,34.77
2022-09-30T10:54:42.473Z,34.80
2022-09-30T10:57:31.222Z,34.88
2022-09-30T11:00:02.097Z,34.70
2022-09-30T11:02:36.379Z,34.63
2022-09-30T11:05:08.434Z,34.55
2022-09-30T11:07:49.385Z,34.67
2022-09-30T11:10:52.305Z,34.67
2022-09-30T11:13:58.235Z,34.77
2022-09-30T11:17:22.909Z,34.70
2022-09-30T11:20:11.565Z,34.65
2022-09-30T11:22:48.991Z,34.58
2022-09-30T11:25:37.608Z,34.54
2022-09-30T11:28:43.330Z,34.56
2022-09-30T11:31:21.681Z,34.46
2022-09-30T11:33:58.477Z,34.33
2022-09-30T11:36:45.088Z,34.48
2022-09-30T11:39:31.453Z,34.23
2022-09-30T11:42:11.683Z,34.35
2022-09-30T11:44:44.919Z,34.41
2022-09-30T11:47:48.559Z,34.47
2022-09-30T11:50:31.233Z,34.36
2022-09-30T11:53:14.746Z,34.25
2022-09-30T11:56:02.136Z,34.15
2022-09-30T11:58:42.483Z,34.20
2022-09-30T12:01:22.973Z,34.10
2022-09-30T12:04:09.584Z,34.09
2022-09-30T12:06:48.321Z,33.97
2022-09-30T12:09:23.847Z,33.83
2022-09-30T12:12:16.238Z,33.92
2022-09-30T12:14:58.011Z,33.87
2022-09-30T12:17:47.795Z,33.81
2022-09-30T12:20:29.133Z,33.58
2022-09-30T12:23:31.599Z,33.59
2022-09-30T12:26:02.744Z,33.34
2022-09-30T12:29:20.147Z,33.45
2022-09-30T12:32:10.628Z,33.42
2022-09-30T12:35:02.418Z,33.31
2022-09-30T12:37:31.528Z,33.14
2022-09-30T12:40:33.967Z,33.15
2022-09-30T12:43:08.627Z,33.22
2022-09-30T12:46:14.650Z,33.08
2022-09-30T12:48:49.889Z,32.90
2022-09-30T12:51:31.213Z,32.89
2022-09-30T12:54:27.157Z,32.88
2022-09-30T12:57:05.006Z,32.79
2022-09-30T12:59:40.207Z,32.73
2022-09-30T13:02:10.112Z,32.60
2022-09-30T13:04:44.546Z,32.58
2022-09-30T13:07:20.404Z,32.57
2022-09-30T13:10:23.285Z,32.60
2022-09-30T13:13:12.759Z,32.60
2022-09-30T13:15:47.149Z,32.44
2022-09-30T13:18:21.990Z,32.46
2022-09-30T13:20:51.130Z,32.35
2022-09-30T13:23:43.242Z,32.48
2022-09-30T13:26:25.624Z,32.46
2022-09-30T13:28:55.340Z,32.49
2022-09-30T13:31:26.247Z,32.28
2022-09-30T13:34:04.336Z,32.29
2022-09-30T13:36:39.770Z,32.10
2022-09-30T13:39:48.051Z,32.26
2022-09-30T13:42:30.681Z,32.16
2022-09-30T13:45:08.875Z,32.20
2022-09-30T13:47:50.467Z,32.19
2022-09-30T13:50:30.297Z,32.15
2022-09-30T13:53:03.785Z,32.10
2022-09-30T13:55:47.526Z,32.19
2022-09-30T13:58:54.057Z,32.19
2022-09-30T14:01:28.974Z,32.00
2022-09-30T14:04:14.186Z,32.11
2022-09-30T14:06:58.318Z,32.08
2022-09-30T14:09:45.726Z,32.15
2022-09-30T14:12:45.155Z,32.08
2022-09-30T14:15:25.475Z,32.07
2022-09-30T14:18:22.334Z,32.06
2022-09-30T14:21:29.595Z,32.06
2022-09-30T14:24:11.126Z,31.92
2022-09-30T14:27:05.102Z,32.02
2022-09-30T14:29:53.345Z,31.93
2022-09-30T14:32:56.417Z,31.88
2022-09-30T14:35:31.045Z,31.82
2022-09-30T14:38:04.736Z,31.81
2022-09-30T14:40:37.457Z,31.68
2022-09-30T14:43:10.635Z,31.63
2022-09-30T14:45:45.640Z,31.54
2022-09-30T14:48:29.738Z,31.52
2022-09-30T14:51:21.478Z,31.57
2022-09-30T14:53:58.360Z,31.55
2022-09-30T14:56:36.407Z,31.52
2022-09-30T14:59:34.067Z,31.63
2022-09-30T15:02:11.328Z,31.53
2022-09-30T15:04:47.811Z,31.44
2022-09-30T15:07:17.428Z,31.38
2022-09-30T15:09:48.869Z,31.38
2022-09-30T15:12:21.879Z,31.44
2022-09-30T15:15:00.061Z,31.52
2022-09-30T15:17:37.544Z,31.44
2022-09-30T15:20:33.995Z,31.53
2022-09-30T15:23:11.400Z,31.33
2022-09-30T15:25:42.436Z,31.14
2022-09-30T15:28:15.351Z,31.19
2022-09-30T15:30:46.067Z,31.10
2022-09-30T15:33:21.627Z,31.16
2022-09-30T15:35:54.420Z,31.13
2022-09-30T15:38:31.681Z,31.26
2022-09-30T15:41:15.693Z,31.19
2022-09-30T15:43:55.111Z,31.18
2022-09-30T15:46:31.070Z,31.15
2022-09-30T15:49:06.559Z,31.07
2022-09-30T15:51:41.383Z,30.93
2022-09-30T15:54:28.698Z,31.02
2022-09-30T15:56:58.659Z,30.85
2022-09-30T16:00:04.301Z,31.04
2022-09-30T16:02:34.059Z,30.79
2022-09-30T16:05:08.030Z,30.79
2022-09-30T16:07:38.179Z,30.74
2022-09-30T16:10:23.299Z,30.77
2022-09-30T16:15:23.328Z,30.57
2022-09-30T16:17:56.494Z,30.56
2022-09-30T16:20:27.983Z,30.57
2022-09-30T16:23:03.825Z,30.52
2022-09-30T16:25:38.491Z,30.55
2022-09-30T16:28:18.545Z,30.50
2022-09-30T16:30:55.521Z,30.56
2022-09-30T16:33:25.577Z,30.46
2022-09-30T16:35:55.477Z,30.52
2022-09-30T16:38:28.553Z,30.52
2022-09-30T16:40:59.459Z,30.43
2022-09-30T16:43:35.096Z,30.49
2022-09-30T16:46:17.565Z,30.47
2022-09-30T16:48:51.987Z,30.44
2022-09-30T16:51:23.082Z,30.45
2022-09-30T16:53:55.115Z,30.43
2022-09-30T16:56:29.581Z,30.38
2022-09-30T16:59:04.439Z,30.37
2022-09-30T17:01:38.237Z,30.55
2022-09-30T17:04:15.225Z,30.44
2022-09-30T17:06:58.247Z,30.37
2022-09-30T17:09:27.831Z,30.42
2022-09-30T17:11:58.355Z,30.45
2022-09-30T17:14:33.244Z,30.44
2022-09-30T17:17:09.767Z,30.42
2022-09-30T17:19:44.018Z,30.44
2022-09-30T17:22:17.355Z,30.42
2022-09-30T17:24:48.025Z,30.31
2022-09-30T17:27:24.700Z,30.22
2022-09-30T17:29:59.512Z,30.19
2022-09-30T17:32:35.129Z,30.19
2022-09-30T17:35:11.514Z,30.22
2022-09-30T17:37:46.354Z,30.18
2022-09-30T17:40:38.265Z,30.05
2022-09-30T17:43:09.561Z,30.02
2022-09-30T17:45:43.292Z,30.00
2022-09-30T17:48:16.321Z,29.99
2022-09-30T17:50:52.458Z,29.90
2022-09-30T17:53:22.744Z,30.09
2022-09-30T17:56:06.206Z,30.01
2022-09-30T17:58:36.280Z,29.84
2022-09-30T18:01:12.706Z,29.95
2022-09-30T18:03:46.850Z,29.81
2022-09-30T18:06:21.712Z,29.94
2022-09-30T18:09:13.483Z,29.88
2022-09-30T18:11:44.604Z,29.94
2022-09-30T18:14:15.448Z,29.91
2022-09-30T18:16:46.752Z,29.83
2022-09-30T18:19:18.970Z,29.88
2022-09-30T18:21:48.319Z,30.00
2022-09-30T18:24:20.751Z,29.76
2022-09-30T18:26:50.637Z,29.73
2022-09-30T18:29:22.358Z,29.68
2022-09-30T18:31:53.262Z,29.67
2022-09-30T18:34:26.319Z,29.75
2022-09-30T18:36:55.996Z,29.63
2022-09-30T18:39:25.935Z,29.60
2022-09-30T18:41:57.656Z,29.56
2022-09-30T18:44:30.354Z,29.57
2022-09-30T18:47:01.717Z,29.65
2022-09-30T18:49:31.156Z,29.63
2022-09-30T18:52:00.799Z,29.67
2022-09-30T18:54:30.933Z,29.58
2022-09-30T18:57:01.015Z,29.57
2022-09-30T18:59:30.714Z,29.57
2022-09-30T19:02:01.493Z,29.61
2022-09-30T19:04:30.770Z,29.66
2022-09-30T19:06:59.961Z,29.62
2022-09-30T19:09:29.522Z,29.54
2022-09-30T19:11:58.522Z,29.53
2022-09-30T19:14:31.866Z,29.53
2022-09-30T19:17:01.305Z,29.54
2022-09-30T19:19:30.519Z,29.45
2022-09-30T19:22:02.982Z,29.48
2022-09-30T19:24:31.522Z,29.67
2022-09-30T19:27:00.719Z,29.55
2022-09-30T19:29:30.430Z,29.58
2022-09-30T19:32:02.681Z,29.63
2022-09-30T19:34:32.653Z,29.51
2022-09-30T19:37:01.763Z,29.56
2022-09-30T19:39:43.312Z,29.55
2022-09-30T19:42:15.519Z,29.51
2022-09-30T19:44:44.606Z,29.54
2022-09-30T19:47:13.715Z,29.55
2022-09-30T19:49:43.806Z,29.50
2022-09-30T19:52:20.908Z,29.48
2022-09-30T19:54:51.971Z,29.35
2022-09-30T19:57:20.990Z,29.42
2022-09-30T19:59:56.568Z,29.50
2022-09-30T20:02:26.503Z,29.22
2022-09-30T20:04:55.817Z,29.23
2022-09-30T20:07:25.036Z,29.30
2022-09-30T20:09:57.981Z,29.22
2022-09-30T20:12:27.324Z,29.21
2022-09-30T20:15:14.866Z,29.30
2022-09-30T20:17:44.529Z,29.31
2022-09-30T20:20:32.042Z,29.15
2022-09-30T20:23:04.711Z,29.27
2022-09-30T20:25:36.173Z,29.26
2022-09-30T20:28:07.213Z,29.24
2022-09-30T20:30:46.450Z,29.38
2022-09-30T20:33:27.319Z,29.36
2022-09-30T20:35:56.416Z,29.20
2022-09-30T20:38:25.846Z,29.12
2022-09-30T20:40:59.798Z,29.17
2022-09-30T20:43:33.429Z,29.12
2022-09-30T20:46:06.699Z,29.15
2022-09-30T20:48:40.961Z,29.06
2022-09-30T20:51:13.390Z,29.08
2022-09-30T20:53:48.702Z,28.93
2022-09-30T20:56:18.548Z,29.04
2022-09-30T20:58:47.693Z,28.98
2022-09-30T21:01:20.710Z,29.03
2022-09-30T21:03:51.991Z,29.04
2022-09-30T21:06:31.394Z,29.05
2022-09-30T21:09:04.298Z,28.90
2022-09-30T21:11:34.559Z,28.97
2022-09-30T21:14:03.872Z,29.11
2022-09-30T21:16:32.981Z,29.08
2022-09-30T21:19:02.066Z,29.06
2022-09-30T21:21:31.444Z,29.05
2022-09-30T21:24:01.138Z,28.97
2022-09-30T21:26:30.910Z,28.97
2022-09-30T21:29:01.051Z,28.84
2022-09-30T21:31:31.582Z,28.79
2022-09-30T21:34:02.014Z,28.87
2022-09-30T21:36:33.312Z,28.79
2022-09-30T21:39:07.072Z,28.84
2022-09-30T21:41:36.889Z,28.75
2022-09-30T21:44:05.946Z,28.68
2022-09-30T21:46:36.782Z,28.68
2022-09-30T21:49:08.671Z,28.77
2022-09-30T21:51:38.226Z,28.68
2022-09-30T21:54:07.757Z,28.64
2022-09-30T21:56:37.507Z,28.65
2022-09-30T21:59:07.134Z,28.67
2022-09-30T22:01:37.711Z,28.70
2022-09-30T22:04:07.874Z,28.71
2022-09-30T22:06:36.918Z,28.72
2022-09-30T22:09:06.697Z,28.69
2022-09-30T22:11:37.483Z,28.66
2022-09-30T22:14:07.305Z,28.65
2022-09-30T22:16:36.494Z,28.61
2022-09-30T22:19:08.303Z,28.59
2022-09-30T22:21:39.782Z,28.68
2022-09-30T22:24:12.785Z,28.61
2022-09-30T22:26:42.942Z,28.53
2022-09-30T22:29:13.520Z,28.56
2022-09-30T22:31:43.105Z,28.60
2022-09-30T22:34:33.381Z,28.70
2022-09-30T22:37:21.141Z,28.67
2022-09-30T22:39:50.171Z,28.62
2022-09-30T22:42:19.294Z,28.56
2022-09-30T22:44:49.039Z,28.56
2022-09-30T22:47:18.794Z,28.58
2022-09-30T22:49:50.913Z,28.53
2022-09-30T22:52:21.659Z,28.61
2022-09-30T22:54:50.690Z,28.68
2022-09-30T22:57:19.543Z,28.62
2022-09-30T22:59:48.802Z,28.53
2022-09-30T23:02:18.055Z,28.46
2022-09-30T23:04:47.807Z,28.44
2022-09-30T23:07:16.889Z,28.43
2022-09-30T23:09:48.852Z,28.44
2022-09-30T23:12:19.367Z,28.34
2022-09-30T23:14:48.803Z,28.40
2022-09-30T23:17:17.882Z,28.34
2022-09-30T23:19:47.135Z,28.40
2022-09-30T23:22:16.245Z,28.34
2022-09-30T23:24:45.174Z,28.36
2022-09-30T23:27:14.262Z,28.40
2022-09-30T23:29:43.227Z,28.37
2022-09-30T23:32:12.222Z,28.33
2022-09-30T23:34:41.635Z,28.40
2022-09-30T23:37:10.708Z,28.41
2022-09-30T23:39:40.628Z,28.36
2022-09-30T23:42:09.515Z,28.35
2022-09-30T23:44:38.465Z,28.34
2022-09-30T23:47:19.467Z,28.32
2022-09-30T23:49:48.712Z,28.32
2022-09-30T23:52:18.776Z,28.32
2022-09-30T23:54:48.213Z,28.34
2022-09-30T23:57:17.019Z,28.30
2022-09-30T23:59:46.263Z,28.29
